createdAt,value
2022-12-07T00:00:13.859Z,4.72
2022-12-07T00:02:47.697Z,4.61
2022-12-07T00:05:20.540Z,4.79
2022-12-07T00:07:53.401Z,4.80
2022-12-07T00:10:26.238Z,4.70
2022-12-07T00:13:00.424Z,4.78
2022-12-07T00:15:36.562Z,4.70
2022-12-07T00:18:09.370Z,4.65
2022-12-07T00:20:42.142Z,4.51
2022-12-07T00:23:14.989Z,4.76
2022-12-07T00:25:50.150Z,4.72
2022-12-07T00:28:24.668Z,4.72
2022-12-07T00:31:02.413Z,4.44
2022-12-07T00:33:36.256Z,4.59
2022-12-07T00:36:11.719Z,4.57
2022-12-07T00:38:44.940Z,4.47
2022-12-07T00:41:20.233Z,4.69
2022-12-07T00:43:55.063Z,4.47
2022-12-07T00:46:28.517Z,4.58
2022-12-07T00:49:01.498Z,4.49
2022-12-07T00:51:34.371Z,4.64
2022-12-07T00:54:07.139Z,4.57
2022-12-07T00:56:39.959Z,4.61
2022-12-07T00:59:15.861Z,4.51
2022-12-07T01:01:48.715Z,4.43
2022-12-07T01:04:21.575Z,4.46
2022-12-07T01:06:54.375Z,4.52
2022-12-07T01:09:27.183Z,4.35
2022-12-07T01:12:00.077Z,4.39
2022-12-07T01:14:34.272Z,4.31
2022-12-07T01:17:07.107Z,4.18
2022-12-07T01:19:40.038Z,4.21
2022-12-07T01:22:12.819Z,4.24
2022-12-07T01:24:47.617Z,4.00
2022-12-07T01:27:22.243Z,4.02
2022-12-07T01:29:56.541Z,4.11
2022-12-07T01:32:29.660Z,4.05
2022-12-07T01:35:02.379Z,4.15
2022-12-07T01:37:37.539Z,4.13
2022-12-07T01:40:12.637Z,4.11
2022-12-07T01:42:45.518Z,3.95
2022-12-07T01:45:41.650Z,4.16
2022-12-07T01:48:17.991Z,4.00
2022-12-07T01:50:53.762Z,3.94
2022-12-07T01:53:30.537Z,3.96
2022-12-07T01:56:03.631Z,3.72
2022-12-07T01:58:36.990Z,3.84
2022-12-07T02:01:11.244Z,3.70
2022-12-07T02:03:46.705Z,3.58
2022-12-07T02:06:23.543Z,3.85
2022-12-07T02:08:56.511Z,3.82
2022-12-07T02:11:29.352Z,3.76
2022-12-07T02:14:02.475Z,3.70
2022-12-07T02:16:48.265Z,3.35
2022-12-07T02:19:52.948Z,3.50
2022-12-07T02:22:51.416Z,3.55
2022-12-07T02:25:35.574Z,3.36
2022-12-07T02:28:14.001Z,3.34
2022-12-07T02:30:50.656Z,3.36
2022-12-07T02:33:30.689Z,3.18
2022-12-07T02:36:09.526Z,3.08
2022-12-07T02:38:49.751Z,3.20
2022-12-07T02:41:29.601Z,2.96
2022-12-07T02:44:05.732Z,3.23
2022-12-07T02:46:43.711Z,3.16
2022-12-07T02:49:17.172Z,3.10
2022-12-07T02:51:50.005Z,3.01
2022-12-07T02:54:24.174Z,3.00
2022-12-07T02:57:04.016Z,3.07
2022-12-07T02:59:48.769Z,3.02
2022-12-07T03:02:31.498Z,2.90
2022-12-07T03:05:19.900Z,2.37
2022-12-07T03:08:01.781Z,2.91
2022-12-07T03:10:42.151Z,2.85
2022-12-07T03:13:27.426Z,2.88
2022-12-07T03:16:07.210Z,2.90
2022-12-07T03:18:46.524Z,2.83
2022-12-07T03:21:22.094Z,2.76
2022-12-07T03:23:58.640Z,2.74
2022-12-07T03:26:37.798Z,2.73
2022-12-07T03:29:15.466Z,2.53
2022-12-07T03:31:52.531Z,2.61
2022-12-07T03:34:34.803Z,2.57
2022-12-07T03:37:13.000Z,2.66
2022-12-07T03:39:54.010Z,2.65
2022-12-07T03:42:27.380Z,2.28
2022-12-07T03:45:00.991Z,2.57
2022-12-07T03:47:37.334Z,2.58
2022-12-07T03:50:17.621Z,2.58
2022-12-07T03:52:56.599Z,2.54
2022-12-07T03:55:33.425Z,2.42
2022-12-07T03:58:11.184Z,2.54
2022-12-07T04:00:45.104Z,2.45
2022-12-07T04:03:18.423Z,2.23
2022-12-07T04:05:53.010Z,2.48
2022-12-07T04:08:25.986Z,2.64
2022-12-07T04:10:59.112Z,2.63
2022-12-07T04:13:51.918Z,2.66
2022-12-07T04:16:24.799Z,2.29
2022-12-07T04:18:57.726Z,2.45
2022-12-07T04:21:31.925Z,2.44
2022-12-07T04:24:05.552Z,2.37
2022-12-07T04:26:38.321Z,2.49
2022-12-07T04:29:11.687Z,2.56
2022-12-07T04:31:45.164Z,2.47
2022-12-07T04:34:19.237Z,2.51
2022-12-07T04:36:53.349Z,2.52
2022-12-07T04:39:27.784Z,2.51
2022-12-07T04:42:01.527Z,2.45
2022-12-07T04:44:46.543Z,2.43
2022-12-07T04:47:37.851Z,2.52
2022-12-07T04:50:29.504Z,2.49
2022-12-07T04:53:04.701Z,2.49
2022-12-07T04:55:38.131Z,2.48
2022-12-07T04:58:10.972Z,2.49
2022-12-07T05:00:43.805Z,2.50
2022-12-07T05:03:16.594Z,2.51
2022-12-07T05:05:49.379Z,2.20
2022-12-07T05:08:23.675Z,2.44
2022-12-07T05:10:56.791Z,2.29
2022-12-07T05:13:29.638Z,2.49
2022-12-07T05:16:04.554Z,2.47
2022-12-07T05:18:37.337Z,2.46
2022-12-07T05:21:10.227Z,2.44
2022-12-07T05:23:44.494Z,2.31
2022-12-07T05:26:17.243Z,2.48
2022-12-07T05:28:53.015Z,2.47
2022-12-07T05:31:27.857Z,2.35
2022-12-07T05:34:00.669Z,2.48
2022-12-07T05:36:33.464Z,2.50
2022-12-07T05:39:08.134Z,2.51
2022-12-07T05:41:58.499Z,2.57
2022-12-07T05:44:31.497Z,2.54
2022-12-07T05:47:05.110Z,2.57
2022-12-07T05:49:38.045Z,2.60
2022-12-07T05:52:10.895Z,2.60
2022-12-07T05:54:45.177Z,2.58
2022-12-07T05:57:18.127Z,2.58
2022-12-07T05:59:49.998Z,2.45
2022-12-07T06:02:22.880Z,2.40
2022-12-07T06:04:56.362Z,2.35
2022-12-07T06:07:29.155Z,2.43
2022-12-07T06:10:03.475Z,2.13
2022-12-07T06:12:35.584Z,2.35
2022-12-07T06:15:27.053Z,2.33
2022-12-07T06:18:02.083Z,2.33
2022-12-07T06:20:34.916Z,2.32
2022-12-07T06:23:07.734Z,2.25
2022-12-07T06:25:41.847Z,2.15
2022-12-07T06:28:14.906Z,2.30
2022-12-07T06:30:47.669Z,2.27
2022-12-07T06:33:20.466Z,2.39
2022-12-07T06:35:53.250Z,2.41
2022-12-07T06:38:26.000Z,2.25
2022-12-07T06:41:00.128Z,2.39
2022-12-07T06:43:32.996Z,2.37
2022-12-07T06:46:06.284Z,2.34
2022-12-07T06:48:39.261Z,2.31
2022-12-07T06:51:12.165Z,2.30
2022-12-07T06:53:44.978Z,2.15
2022-12-07T06:56:19.139Z,2.05
2022-12-07T06:58:52.081Z,2.23
2022-12-07T07:01:25.188Z,2.05
2022-12-07T07:03:58.021Z,2.18
2022-12-07T07:06:30.966Z,2.12
2022-12-07T07:09:04.161Z,1.81
2022-12-07T07:11:38.362Z,1.91
2022-12-07T07:14:11.187Z,1.97
2022-12-07T07:16:44.075Z,1.94
2022-12-07T07:19:16.951Z,1.90
2022-12-07T07:21:49.785Z,1.74
2022-12-07T07:24:22.810Z,1.58
2022-12-07T07:26:56.970Z,1.82
2022-12-07T07:29:29.750Z,1.51
2022-12-07T07:32:06.739Z,1.75
2022-12-07T07:34:39.811Z,1.77
2022-12-07T07:37:18.699Z,1.73
2022-12-07T07:39:54.490Z,1.74
2022-12-07T07:42:28.588Z,1.76
2022-12-07T07:45:01.353Z,1.74
2022-12-07T07:47:34.346Z,1.77
2022-12-07T07:50:08.618Z,1.78
2022-12-07T07:52:41.818Z,1.87
2022-12-07T07:55:14.984Z,1.91
2022-12-07T07:57:54.430Z,1.93
2022-12-07T08:00:28.019Z,1.98
2022-12-07T08:03:01.130Z,1.87
2022-12-07T08:05:33.902Z,2.10
2022-12-07T08:08:06.986Z,2.14
2022-12-07T08:10:39.884Z,2.19
2022-12-07T08:13:14.585Z,2.22
2022-12-07T08:15:49.422Z,2.00
2022-12-07T08:18:22.242Z,1.96
2022-12-07T08:21:01.695Z,1.96
2022-12-07T08:23:39.467Z,2.01
2022-12-07T08:26:14.854Z,2.13
2022-12-07T08:28:49.055Z,2.15
2022-12-07T08:31:22.210Z,2.13
2022-12-07T08:33:55.447Z,2.09
2022-12-07T08:36:28.329Z,1.91
2022-12-07T08:39:30.498Z,1.92
2022-12-07T08:41:54.098Z,2.12
2022-12-07T08:44:28.235Z,2.19
2022-12-07T08:47:04.571Z,2.15
2022-12-07T08:49:41.108Z,2.24
2022-12-07T08:52:13.966Z,2.42
2022-12-07T08:54:47.244Z,2.67
2022-12-07T08:57:20.002Z,2.84
2022-12-07T08:59:54.158Z,2.75
2022-12-07T09:02:27.493Z,2.69
2022-12-07T09:05:00.260Z,2.92
2022-12-07T09:07:35.615Z,3.13
2022-12-07T09:10:09.623Z,3.27
2022-12-07T09:12:42.622Z,3.58
2022-12-07T09:15:17.149Z,3.54
2022-12-07T09:17:50.146Z,3.98
2022-12-07T09:20:27.774Z,3.59
2022-12-07T09:23:01.795Z,3.48
2022-12-07T09:25:34.860Z,3.39
2022-12-07T09:28:07.824Z,3.36
2022-12-07T09:31:21.685Z,3.22
2022-12-07T09:33:40.529Z,3.37
2022-12-07T09:36:13.306Z,3.39
2022-12-07T09:38:46.062Z,3.44
2022-12-07T09:41:19.257Z,3.43
2022-12-07T09:43:52.686Z,3.48
2022-12-07T09:46:27.094Z,3.59
2022-12-07T09:48:59.939Z,3.68
2022-12-07T09:51:33.515Z,3.79
2022-12-07T09:54:06.374Z,3.96
2022-12-07T09:56:39.281Z,3.87
2022-12-07T09:59:18.512Z,3.61
2022-12-07T10:01:52.855Z,3.97
2022-12-07T10:04:27.598Z,3.97
2022-12-07T10:07:00.503Z,4.18
2022-12-07T10:09:36.082Z,4.24
2022-12-07T10:12:11.259Z,4.32
2022-12-07T10:15:07.303Z,3.97
2022-12-07T10:17:49.554Z,4.29
2022-12-07T10:20:27.478Z,4.65
2022-12-07T10:23:03.051Z,4.54
2022-12-07T10:25:39.112Z,4.60
2022-12-07T10:28:16.144Z,4.70
2022-12-07T10:30:53.179Z,4.71
2022-12-07T10:33:36.528Z,4.44
2022-12-07T10:36:24.713Z,4.73
2022-12-07T10:39:04.066Z,4.78
2022-12-07T10:41:36.897Z,4.67
2022-12-07T10:44:23.245Z,4.41
2022-12-07T10:47:08.067Z,4.37
2022-12-07T10:50:12.075Z,4.82
2022-12-07T10:53:10.796Z,4.87
2022-12-07T10:56:00.644Z,5.44
2022-12-07T10:58:44.054Z,5.36
2022-12-07T11:01:26.674Z,5.43
2022-12-07T11:04:16.277Z,5.55
2022-12-07T11:06:56.912Z,5.38
2022-12-07T11:12:56.429Z,5.29
2022-12-07T11:15:38.938Z,5.37
2022-12-07T11:18:19.048Z,5.41
2022-12-07T11:20:56.239Z,5.28
2022-12-07T11:23:42.151Z,5.36
2022-12-07T11:26:22.090Z,5.92
2022-12-07T11:29:11.628Z,5.90
2022-12-07T11:31:59.481Z,6.13
2022-12-07T11:34:40.511Z,6.21
2022-12-07T11:37:19.070Z,6.60
2022-12-07T11:39:57.280Z,6.66
2022-12-07T11:42:36.524Z,6.54
2022-12-07T11:45:16.947Z,6.50
2022-12-07T11:47:56.191Z,6.40
2022-12-07T11:50:35.498Z,6.25
2022-12-07T11:53:16.388Z,6.19
2022-12-07T11:55:54.985Z,6.13
2022-12-07T11:58:51.486Z,6.18
2022-12-07T12:01:48.177Z,6.11
2022-12-07T12:04:42.075Z,6.18
2022-12-07T12:10:21.020Z,6.36
2022-12-07T12:16:15.492Z,6.69
2022-12-07T12:19:12.794Z,6.36
2022-12-07T12:21:48.629Z,6.22
2022-12-07T12:24:25.458Z,6.40
2022-12-07T12:27:04.959Z,6.31
2022-12-07T12:29:41.877Z,6.27
2022-12-07T12:32:19.272Z,6.16
2022-12-07T12:35:21.577Z,6.23
2022-12-07T12:37:55.671Z,6.33
2022-12-07T12:40:50.436Z,6.28
2022-12-07T12:43:47.050Z,6.37
2022-12-07T12:46:49.969Z,6.22
2022-12-07T12:49:43.927Z,5.94
2022-12-07T12:53:10.492Z,6.41
2022-12-07T12:56:09.217Z,6.09
2022-12-07T12:58:46.626Z,6.10
2022-12-07T13:01:44.133Z,6.19
2022-12-07T13:04:55.601Z,6.24
2022-12-07T13:07:59.822Z,6.15
2022-12-07T13:10:44.518Z,6.23
2022-12-07T13:13:38.230Z,6.08
2022-12-07T13:16:40.712Z,6.20
2022-12-07T13:20:00.407Z,6.16
2022-12-07T13:23:00.126Z,5.98
2022-12-07T13:25:39.921Z,6.10
2022-12-07T13:28:18.088Z,5.89
2022-12-07T13:31:02.660Z,5.87
2022-12-07T13:33:36.995Z,5.60
2022-12-07T13:36:19.545Z,5.78
2022-12-07T13:38:58.949Z,5.95
2022-12-07T13:41:32.204Z,5.69
2022-12-07T13:44:11.330Z,5.98
2022-12-07T13:46:52.199Z,5.86
2022-12-07T13:49:27.441Z,5.82
2022-12-07T13:52:17.077Z,5.75
2022-12-07T13:54:58.548Z,5.86
2022-12-07T13:57:35.581Z,5.80
2022-12-07T14:00:17.562Z,5.82
2022-12-07T14:02:58.239Z,5.67
2022-12-07T14:05:32.819Z,5.90
2022-12-07T14:08:07.974Z,5.81
2022-12-07T14:10:44.523Z,5.69
2022-12-07T14:13:32.644Z,5.84
2022-12-07T14:16:19.134Z,5.92
2022-12-07T14:18:52.001Z,5.98
2022-12-07T14:21:27.453Z,6.12
2022-12-07T14:24:13.330Z,6.04
2022-12-07T14:26:49.182Z,6.24
2022-12-07T14:29:33.917Z,6.05
2022-12-07T14:32:21.707Z,6.04
2022-12-07T14:35:03.540Z,6.27
2022-12-07T14:37:36.451Z,5.95
2022-12-07T14:40:14.728Z,6.19
2022-12-07T14:42:53.196Z,6.41
2022-12-07T14:45:26.032Z,6.69
2022-12-07T14:53:55.038Z,6.29
2022-12-07T14:56:30.723Z,5.94
2022-12-07T14:59:05.022Z,5.48
2022-12-07T15:01:38.214Z,5.60
2022-12-07T15:04:11.159Z,5.57
2022-12-07T15:06:44.877Z,5.76
2022-12-07T15:09:17.688Z,5.61
2022-12-07T15:11:50.605Z,5.48
2022-12-07T15:14:24.754Z,5.50
2022-12-07T15:17:23.090Z,5.33
2022-12-07T15:19:50.457Z,5.32
2022-12-07T15:22:23.236Z,5.36
2022-12-07T15:24:56.211Z,5.20
2022-12-07T15:27:29.841Z,5.09
2022-12-07T15:30:05.481Z,5.03
2022-12-07T15:32:38.309Z,4.66
2022-12-07T15:35:11.631Z,4.90
2022-12-07T15:37:44.475Z,4.95
2022-12-07T15:40:17.911Z,4.92
2022-12-07T15:42:50.965Z,4.77
2022-12-07T15:45:24.377Z,4.82
2022-12-07T15:50:49.980Z,4.85
2022-12-07T15:53:22.949Z,4.78
2022-12-07T15:55:55.738Z,4.79
2022-12-07T15:58:29.044Z,4.70
2022-12-07T16:01:12.498Z,4.75
2022-12-07T16:03:46.152Z,4.68
2022-12-07T16:06:20.193Z,4.66
2022-12-07T16:08:53.084Z,4.71
2022-12-07T16:11:26.002Z,4.52
2022-12-07T16:13:58.947Z,4.53
2022-12-07T16:16:33.209Z,4.61
2022-12-07T16:19:06.482Z,4.51
2022-12-07T16:21:39.662Z,4.54
2022-12-07T16:24:13.973Z,4.47
2022-12-07T16:26:50.172Z,4.27
2022-12-07T16:29:24.251Z,4.47
2022-12-07T16:31:58.610Z,4.45
2022-12-07T16:34:31.514Z,4.50
2022-12-07T16:37:05.518Z,4.47
2022-12-07T16:39:38.862Z,4.44
2022-12-07T16:42:11.694Z,4.44
2022-12-07T16:44:44.498Z,4.38
2022-12-07T16:47:18.625Z,4.40
2022-12-07T16:49:51.841Z,4.42
2022-12-07T16:52:24.653Z,4.39
2022-12-07T16:54:57.439Z,4.33
2022-12-07T16:57:32.407Z,4.24
2022-12-07T17:00:05.666Z,4.31
2022-12-07T17:02:39.881Z,4.03
2022-12-07T17:05:12.685Z,4.22
2022-12-07T17:07:45.575Z,4.27
2022-12-07T17:10:18.861Z,4.23
2022-12-07T17:12:52.348Z,4.14
2022-12-07T17:15:24.174Z,4.17
2022-12-07T17:17:59.835Z,4.14
2022-12-07T17:20:32.612Z,4.02
2022-12-07T17:23:05.356Z,4.03
2022-12-07T17:25:38.082Z,3.96
2022-12-07T17:28:10.975Z,3.95
2022-12-07T17:30:43.700Z,4.02
2022-12-07T17:33:17.839Z,3.82
2022-12-07T17:35:50.613Z,3.77
2022-12-07T17:38:23.437Z,3.86
2022-12-07T17:40:56.278Z,3.93
2022-12-07T17:43:29.037Z,3.90
2022-12-07T17:46:08.005Z,3.96
2022-12-07T17:48:42.615Z,3.91
2022-12-07T17:51:33.015Z,3.94
2022-12-07T17:54:06.411Z,3.81
2022-12-07T17:56:39.501Z,3.95
2022-12-07T17:59:12.864Z,3.68
2022-12-07T18:01:46.721Z,3.85
2022-12-07T18:04:21.134Z,3.88
2022-12-07T18:06:53.926Z,3.71
2022-12-07T18:09:27.313Z,3.88
2022-12-07T18:12:00.347Z,3.81
2022-12-07T18:14:33.368Z,3.87
2022-12-07T18:17:06.217Z,3.58
2022-12-07T18:19:40.497Z,3.80
2022-12-07T18:22:13.270Z,3.89
2022-12-07T18:24:46.061Z,3.90
2022-12-07T18:27:18.809Z,3.87
2022-12-07T18:29:51.608Z,3.82
2022-12-07T18:32:24.664Z,3.68
2022-12-07T18:34:58.810Z,3.80
2022-12-07T18:37:33.239Z,3.79
2022-12-07T18:40:07.855Z,3.77
2022-12-07T18:42:40.729Z,3.62
2022-12-07T18:45:13.512Z,3.76
2022-12-07T18:47:46.335Z,3.74
2022-12-07T18:50:20.578Z,3.74
2022-12-07T18:52:53.401Z,3.72
2022-12-07T18:55:26.275Z,3.68
2022-12-07T18:58:00.256Z,3.66
2022-12-07T19:00:35.372Z,3.72
2022-12-07T19:03:08.136Z,3.55
2022-12-07T19:05:42.260Z,3.73
2022-12-07T19:08:15.503Z,3.73
2022-12-07T19:10:48.347Z,3.66
2022-12-07T19:13:21.179Z,3.72
2022-12-07T19:15:53.958Z,3.67
2022-12-07T19:18:26.799Z,3.68
2022-12-07T19:21:03.967Z,3.66
2022-12-07T19:23:36.755Z,3.66
2022-12-07T19:26:10.206Z,3.45
2022-12-07T19:28:43.152Z,3.54
2022-12-07T19:31:16.765Z,3.47
2022-12-07T19:33:49.727Z,3.41
2022-12-07T19:36:23.938Z,3.39
2022-12-07T19:38:56.760Z,3.32
2022-12-07T19:41:35.688Z,3.33
2022-12-07T19:44:11.897Z,3.41
2022-12-07T19:46:47.500Z,3.39
2022-12-07T19:49:21.507Z,3.28
2022-12-07T19:51:57.527Z,3.10
2022-12-07T19:54:31.907Z,3.31
2022-12-07T19:57:07.000Z,3.17
2022-12-07T19:59:40.100Z,2.99
2022-12-07T20:02:15.344Z,3.30
2022-12-07T20:04:49.312Z,3.27
2022-12-07T20:07:23.574Z,3.28
2022-12-07T20:09:56.391Z,3.25
2022-12-07T20:12:46.754Z,3.02
2022-12-07T20:15:19.576Z,3.18
2022-12-07T20:17:52.393Z,3.19
2022-12-07T20:20:25.342Z,3.04
2022-12-07T20:22:59.508Z,2.93
2022-12-07T20:25:36.086Z,3.17
2022-12-07T20:28:11.222Z,3.19
2022-12-07T20:30:47.283Z,3.15
2022-12-07T20:33:20.796Z,3.01
2022-12-07T20:35:53.950Z,2.94
2022-12-07T20:38:29.160Z,2.92
2022-12-07T20:41:04.476Z,2.93
2022-12-07T20:43:37.505Z,3.10
2022-12-07T20:46:13.082Z,3.01
2022-12-07T20:48:45.909Z,3.11
2022-12-07T20:51:19.202Z,2.93
2022-12-07T20:53:53.432Z,3.16
2022-12-07T20:56:29.017Z,2.85
2022-12-07T20:59:05.544Z,3.10
2022-12-07T21:01:38.588Z,3.10
2022-12-07T21:04:13.508Z,3.11
2022-12-07T21:06:46.419Z,3.07
2022-12-07T21:09:26.497Z,2.93
2022-12-07T21:11:59.315Z,2.95
2022-12-07T21:14:32.269Z,2.95
2022-12-07T21:17:05.063Z,3.08
2022-12-07T21:19:38.240Z,2.98
2022-12-07T21:22:11.070Z,2.94
2022-12-07T21:24:45.274Z,2.68
2022-12-07T21:27:18.441Z,2.91
2022-12-07T21:29:54.466Z,3.04
2022-12-07T21:32:27.338Z,3.04
2022-12-07T21:35:00.195Z,3.04
2022-12-07T21:37:33.160Z,2.86
2022-12-07T21:40:13.600Z,3.06
2022-12-07T21:42:50.184Z,2.96
2022-12-07T21:45:22.983Z,3.07
2022-12-07T21:47:55.787Z,3.00
2022-12-07T21:50:28.568Z,3.09
2022-12-07T21:53:01.390Z,3.06
2022-12-07T21:55:35.654Z,2.80
2022-12-07T21:58:08.476Z,2.76
2022-12-07T22:00:41.477Z,3.05
2022-12-07T22:03:14.355Z,3.01
2022-12-07T22:05:47.275Z,3.08
2022-12-07T22:08:20.411Z,3.09
2022-12-07T22:10:55.053Z,3.10
2022-12-07T22:13:48.643Z,2.94
2022-12-07T22:16:20.455Z,3.13
2022-12-07T22:18:53.396Z,3.11
2022-12-07T22:21:26.861Z,3.11
2022-12-07T22:23:59.979Z,2.87
2022-12-07T22:26:34.666Z,2.89
2022-12-07T22:29:07.730Z,2.80
2022-12-07T22:31:41.787Z,3.02
2022-12-07T22:34:16.903Z,3.14
2022-12-07T22:36:49.587Z,3.10
2022-12-07T22:39:22.423Z,3.08
2022-12-07T22:41:56.554Z,3.07
2022-12-07T22:44:29.380Z,3.03
2022-12-07T22:47:02.243Z,3.08
2022-12-07T22:49:35.301Z,3.08
2022-12-07T22:52:08.279Z,2.99
2022-12-07T22:54:41.049Z,3.05
2022-12-07T22:57:15.598Z,2.96
2022-12-07T22:59:48.393Z,3.02
2022-12-07T23:02:21.279Z,3.03
2022-12-07T23:04:54.060Z,2.97
2022-12-07T23:07:26.917Z,3.02
2022-12-07T23:09:59.945Z,2.90
2022-12-07T23:12:51.419Z,2.99
2022-12-07T23:15:24.224Z,2.86
2022-12-07T23:17:57.005Z,2.80
2022-12-07T23:20:29.962Z,2.76
2022-12-07T23:23:02.788Z,2.97
2022-12-07T23:25:35.584Z,2.92
2022-12-07T23:28:09.764Z,2.75
2022-12-07T23:30:42.601Z,2.75
2022-12-07T23:33:15.503Z,2.79
2022-12-07T23:35:48.535Z,2.94
2022-12-07T23:38:21.383Z,2.97
2022-12-07T23:40:54.222Z,2.94
2022-12-07T23:43:31.191Z,2.92
2022-12-07T23:46:09.279Z,2.95
2022-12-07T23:48:42.641Z,2.94
2022-12-07T23:51:16.539Z,2.95
2022-12-07T23:53:52.749Z,2.92
2022-12-07T23:56:27.752Z,2.77
2022-12-07T23:59:03.251Z,2.88
